Time,TemperatureF,DewpointF,PressureIn,WindDirection,WindDirectionDegrees,WindSpeedMPH,WindSpeedGustMPH,Humidity,HourlyPrecipIn,Conditions,Clouds,dailyrainin,SolarRadiationWatts/m^2,SoftwareType,DateUTC
2013-01-03 00:09:00,44.1,30.0,30.17,ESE,112,0.0,0.0,57,0.00,,,0.00,0,weatherlink.com 1.10,2013-01-03 08:09:00,
2013-01-03 00:24:00,42.9,29.0,30.17,ESE,111,1.0,1.0,58,0.00,,,0.00,0,weatherlink.com 1.10,2013-01-03 08:24:00,
2013-01-03 00:39:00,42.9,29.0,30.17,NE,34,0.0,1.0,59,0.00,,,0.00,0,weatherlink.com 1.10,2013-01-03 08:39:00,
2013-01-03 00:54:00,42.5,30.0,30.17,NE,34,1.0,1.0,62,0.00,,,0.00,0,weatherlink.com 1.10,2013-01-03 08:54:00,
2013-01-03 01:09:00,42.6,30.0,30.17,NE,34,0.0,1.0,62,0.00,,,0.00,0,weatherlink.com 1.10,2013-01-03 09:09:00,
2013-01-03 01:24:00,43.5,31.0,30.17,SSE,158,0.0,2.0,61,0.00,,,0.00,0,weatherlink.com 1.10,2013-01-03 09:24:00,
2013-01-03 01:39:00,43.7,31.0,30.17,SSE,158,0.0,0.0,62,0.00,,,0.00,0,weatherlink.com 1.10,2013-01-03 09:39:00,
2013-01-03 01:54:00,42.4,31.0,30.18,SSE,158,0.0,1.0,64,0.00,,,0.00,0,weatherlink.com 1.10,2013-01-03 09:54:00,
2013-01-03 02:09:00,41.7,31.0,30.18,SSE,158,0.0,1.0,67,0.00,,,0.00,0,weatherlink.com 1.10,2013-01-03 10:09:00,
2013-01-03 02:24:00,41.0,32.0,30.18,SSE,158,0.0,0.0,69,0.00,,,0.00,0,weatherlink.com 1.10,2013-01-03 10:24:00,
2013-01-03 02:39:00,40.8,31.0,30.17,SSE,158,0.0,1.0,69,0.00,,,0.00,0,weatherlink.com 1.10,2013-01-03 10:39:00,
2013-01-03 02:54:00,41.4,32.0,30.17,SSE,158,0.0,0.0,70,0.00,,,0.00,0,weatherlink.com 1.10,2013-01-03 10:54:00,
2013-01-03 03:09:00,41.0,33.0,30.18,SSE,158,0.0,1.0,72,0.00,,,0.00,0,weatherlink.com 1.10,2013-01-03 11:09:00,
2013-01-03 03:24:00,39.9,32.0,30.18,SSE,158,0.0,1.0,74,0.00,,,0.00,0,weatherlink.com 1.10,2013-01-03 11:24:00,
2013-01-03 03:39:00,39.2,32.0,30.18,SSE,158,0.0,0.0,76,0.00,,,0.00,0,weatherlink.com 1.10,2013-01-03 11:39:00,
2013-01-03 03:54:00,38.7,33.0,30.18,SSE,158,0.0,1.0,79,0.00,,,0.00,0,weatherlink.com 1.10,2013-01-03 11:54:00,
2013-01-03 04:09:00,38.6,32.0,30.18,SSE,158,0.0,0.0,78,0.00,,,0.00,0,weatherlink.com 1.10,2013-01-03 12:09:00,
2013-01-03 04:24:00,38.8,33.0,30.18,SSE,158,1.0,1.0,79,0.00,,,0.00,0,weatherlink.com 1.10,2013-01-03 12:24:00,
2013-01-03 04:39:00,38.7,33.0,30.18,SSE,158,0.0,1.0,79,0.00,,,0.00,0,weatherlink.com 1.10,2013-01-03 12:39:00,
2013-01-03 04:54:00,38.8,33.0,30.18,SSE,158,0.0,2.0,80,0.00,,,0.00,0,weatherlink.com 1.10,2013-01-03 12:54:00,
2013-01-03 05:09:00,38.8,33.0,30.18,SSE,158,0.0,1.0,79,0.00,,,0.00,0,weatherlink.com 1.10,2013-01-03 13:09:00,
2013-01-03 05:24:00,38.5,33.0,30.18,SSE,158,0.0,1.0,81,0.00,,,0.00,0,weatherlink.com 1.10,2013-01-03 13:24:00,
2013-01-03 05:39:00,38.8,34.0,30.18,SSE,158,1.0,2.0,82,0.00,,,0.00,0,weatherlink.com 1.10,2013-01-03 13:39:00,
2013-01-03 05:54:00,39.2,33.0,30.17,SSE,158,0.0,1.0,78,0.00,,,0.00,0,weatherlink.com 1.10,2013-01-03 13:54:00,
2013-01-03 06:09:00,39.2,33.0,30.18,SSE,158,0.0,1.0,77,0.00,,,0.00,0,weatherlink.com 1.10,2013-01-03 14:09:00,
2013-01-03 06:24:00,38.6,33.0,30.19,SSE,158,0.0,1.0,80,0.00,,,0.00,0,weatherlink.com 1.10,2013-01-03 14:24:00,
2013-01-03 06:39:00,38.5,33.0,30.19,SSE,158,0.0,0.0,82,0.00,,,0.00,0,weatherlink.com 1.10,2013-01-03 14:39:00,
2013-01-03 06:54:00,38.3,33.0,30.19,ESE,121,0.0,1.0,82,0.00,,,0.00,0,weatherlink.com 1.10,2013-01-03 14:54:00,
2013-01-03 07:09:00,39.2,34.0,30.19,ESE,110,0.0,1.0,80,0.00,,,0.00,0,weatherlink.com 1.10,2013-01-03 15:09:00,
2013-01-03 07:24:00,39.1,33.0,30.20,ESE,110,0.0,1.0,79,0.00,,,0.00,9,weatherlink.com 1.10,2013-01-03 15:24:00,
2013-01-03 07:40:00,39.1,33.0,30.20,ESE,110,0.0,1.0,80,0.00,,,0.00,16,weatherlink.com 1.10,2013-01-03 15:40:00,
2013-01-03 07:55:00,39.3,34.0,30.20,ESE,111,0.0,1.0,80,0.00,,,0.00,32,weatherlink.com 1.10,2013-01-03 15:55:00,
2013-01-03 08:10:00,40.2,35.0,30.21,ESE,111,0.0,0.0,80,0.00,,,0.00,86,weatherlink.com 1.10,2013-01-03 16:10:00,
2013-01-03 08:25:00,42.9,37.0,30.22,ESE,111,1.0,1.0,80,0.00,,,0.00,107,weatherlink.com 1.10,2013-01-03 16:25:00,
2013-01-03 08:40:00,45.3,37.0,30.22,ESE,111,0.0,1.0,73,0.00,,,0.00,51,weatherlink.com 1.10,2013-01-03 16:40:00,
2013-01-03 08:55:00,44.9,37.0,30.23,ESE,111,0.0,1.0,74,0.00,,,0.00,142,weatherlink.com 1.10,2013-01-03 16:55:00,
2013-01-03 09:10:00,45.3,37.0,30.24,ESE,111,1.0,2.0,74,0.00,,,0.00,144,weatherlink.com 1.10,2013-01-03 17:10:00,
2013-01-03 09:25:00,45.5,38.0,30.24,ESE,111,1.0,1.0,76,0.00,,,0.00,200,weatherlink.com 1.10,2013-01-03 17:25:00,
2013-01-03 09:40:00,46.9,39.0,30.25,ESE,111,0.0,0.0,75,0.00,,,0.00,230,weatherlink.com 1.10,2013-01-03 17:40:00,
2013-01-03 09:55:00,48.0,40.0,30.24,ESE,111,0.0,1.0,74,0.00,,,0.00,232,weatherlink.com 1.10,2013-01-03 17:55:00,
2013-01-03 10:10:00,48.8,40.0,30.24,South,175,0.0,2.0,71,0.00,,,0.00,255,weatherlink.com 1.10,2013-01-03 18:10:00,
2013-01-03 10:25:00,49.1,39.0,30.24,South,189,1.0,3.0,69,0.00,,,0.00,330,weatherlink.com 1.10,2013-01-03 18:25:00,
2013-01-03 10:40:00,50.6,41.0,30.25,SSE,159,1.0,2.0,69,0.00,,,0.00,441,weatherlink.com 1.10,2013-01-03 18:40:00,
2013-01-03 10:55:00,51.3,40.0,30.24,SE,144,1.0,3.0,66,0.00,,,0.00,469,weatherlink.com 1.10,2013-01-03 18:55:00,
2013-01-03 11:10:00,53.7,41.0,30.24,SSE,157,0.0,3.0,62,0.00,,,0.00,492,weatherlink.com 1.10,2013-01-03 19:10:00,
2013-01-03 11:56:00,56.9,41.0,30.23,East,89,1.0,5.0,55,0.00,,,0.00,543,weatherlink.com 1.10,2013-01-03 19:56:00,
2013-01-03 12:10:00,57.1,40.0,30.22,South,169,1.0,5.0,53,0.00,,,0.00,534,weatherlink.com 1.10,2013-01-03 20:10:00,
2013-01-03 12:25:00,57.3,41.0,30.22,SSE,152,0.0,4.0,54,0.00,,,0.00,536,weatherlink.com 1.10,2013-01-03 20:25:00,
2013-01-03 12:40:00,58.2,41.0,30.21,SE,131,2.0,4.0,54,0.00,,,0.00,529,weatherlink.com 1.10,2013-01-03 20:40:00,
2013-01-03 12:56:00,59.0,41.0,30.21,SSE,159,1.0,5.0,52,0.00,,,0.00,522,weatherlink.com 1.10,2013-01-03 20:56:00,
2013-01-03 13:11:00,58.9,42.0,30.20,ESE,116,1.0,5.0,53,0.00,,,0.00,510,weatherlink.com 1.10,2013-01-03 21:11:00,
2013-01-03 13:41:00,59.5,42.0,30.20,NNW,348,2.0,4.0,53,0.00,,,0.00,476,weatherlink.com 1.10,2013-01-03 21:41:00,
2013-01-03 13:56:00,60.4,43.0,30.20,SSE,157,3.0,3.0,53,0.00,,,0.00,461,weatherlink.com 1.10,2013-01-03 21:56:00,
2013-01-03 14:11:00,60.7,42.0,30.20,NNE,26,0.0,3.0,51,0.00,,,0.00,429,weatherlink.com 1.10,2013-01-03 22:11:00,
2013-01-03 14:26:00,60.9,42.0,30.20,ESE,120,0.0,4.0,51,0.00,,,0.00,397,weatherlink.com 1.10,2013-01-03 22:26:00,
2013-01-03 14:41:00,60.9,43.0,30.20,SSE,148,2.0,5.0,52,0.00,,,0.00,367,weatherlink.com 1.10,2013-01-03 22:41:00,
2013-01-03 14:56:00,59.7,42.0,30.20,SE,141,1.0,5.0,52,0.00,,,0.00,336,weatherlink.com 1.10,2013-01-03 22:56:00,
2013-01-03 15:11:00,59.7,42.0,30.20,ESE,119,0.0,3.0,52,0.00,,,0.00,299,weatherlink.com 1.10,2013-01-03 23:11:00,
2013-01-03 15:26:00,59.0,41.0,30.20,SE,131,1.0,4.0,52,0.00,,,0.00,253,weatherlink.com 1.10,2013-01-03 23:26:00,
2013-01-03 15:41:00,58.9,42.0,30.21,NNE,15,0.0,3.0,53,0.00,,,0.00,202,weatherlink.com 1.10,2013-01-03 23:41:00,
2013-01-03 15:56:00,59.0,40.0,30.21,South,177,1.0,2.0,50,0.00,,,0.00,151,weatherlink.com 1.10,2013-01-03 23:56:00,
2013-01-03 16:11:00,58.4,40.0,30.22,SSE,163,0.0,2.0,50,0.00,,,0.00,69,weatherlink.com 1.10,2013-01-04 00:11:00,
2013-01-03 16:26:00,57.3,40.0,30.22,North,10,0.0,2.0,52,0.00,,,0.00,33,weatherlink.com 1.10,2013-01-04 00:26:00,
2013-01-03 16:41:00,55.4,39.0,30.22,SE,124,0.0,2.0,54,0.00,,,0.00,19,weatherlink.com 1.10,2013-01-04 00:41:00,
2013-01-03 16:56:00,53.0,38.0,30.22,East,94,0.0,4.0,57,0.00,,,0.00,9,weatherlink.com 1.10,2013-01-04 00:56:00,
2013-01-03 17:11:00,51.3,38.0,30.22,SE,146,1.0,3.0,60,0.00,,,0.00,0,weatherlink.com 1.10,2013-01-04 01:11:00,
2013-01-03 17:26:00,50.1,37.0,30.22,SSW,194,0.0,3.0,62,0.00,,,0.00,0,weatherlink.com 1.10,2013-01-04 01:26:00,
2013-01-03 17:41:00,49.6,37.0,30.23,ESE,119,5.0,5.0,63,0.00,,,0.00,0,weatherlink.com 1.10,2013-01-04 01:41:00,
2013-01-03 17:56:00,49.2,38.0,30.23,West,269,1.0,2.0,65,0.00,,,0.00,0,weatherlink.com 1.10,2013-01-04 01:56:00,
2013-01-03 18:11:00,48.7,38.0,30.23,SE,145,1.0,4.0,66,0.00,,,0.00,0,weatherlink.com 1.10,2013-01-04 02:11:00,
2013-01-03 18:26:00,48.3,38.0,30.24,ESE,121,0.0,2.0,68,0.00,,,0.00,0,weatherlink.com 1.10,2013-01-04 02:26:00,
2013-01-03 18:41:00,48.0,38.0,30.24,North,355,0.0,4.0,69,0.00,,,0.00,0,weatherlink.com 1.10,2013-01-04 02:41:00,
2013-01-03 18:56:00,48.3,38.0,30.24,SSW,210,2.0,4.0,67,0.00,,,0.00,0,weatherlink.com 1.10,2013-01-04 02:56:00,
2013-01-03 19:11:00,48.3,36.0,30.24,SSE,147,1.0,3.0,63,0.00,,,0.00,0,weatherlink.com 1.10,2013-01-04 03:11:00,
2013-01-03 19:26:00,48.6,37.0,30.24,SSE,160,1.0,3.0,64,0.00,,,0.00,0,weatherlink.com 1.10,2013-01-04 03:26:00,
2013-01-03 19:41:00,49.0,36.0,30.24,ESE,103,0.0,4.0,61,0.00,,,0.00,0,weatherlink.com 1.10,2013-01-04 03:41:00,
2013-01-03 19:56:00,49.1,36.0,30.25,East,98,1.0,4.0,60,0.00,,,0.00,0,weatherlink.com 1.10,2013-01-04 03:56:00,
2013-01-03 20:11:00,48.9,36.0,30.25,SE,132,0.0,5.0,61,0.00,,,0.00,0,weatherlink.com 1.10,2013-01-04 04:11:00,
2013-01-03 20:26:00,48.8,36.0,30.25,SE,134,4.0,7.0,61,0.00,,,0.00,0,weatherlink.com 1.10,2013-01-04 04:26:00,
2013-01-03 20:41:00,48.8,37.0,30.25,SE,136,0.0,3.0,63,0.00,,,0.00,0,weatherlink.com 1.10,2013-01-04 04:41:00,
2013-01-03 20:56:00,47.4,36.0,30.26,SE,136,0.0,1.0,65,0.00,,,0.00,0,weatherlink.com 1.10,2013-01-04 04:56:00,
2013-01-03 21:11:00,46.5,36.0,30.25,SE,136,0.0,2.0,67,0.00,,,0.00,0,weatherlink.com 1.10,2013-01-04 05:11:00,
2013-01-03 21:26:00,46.7,36.0,30.26,SSE,165,0.0,1.0,66,0.00,,,0.00,0,weatherlink.com 1.10,2013-01-04 05:26:00,
2013-01-03 21:41:00,46.1,36.0,30.26,SSE,165,0.0,1.0,67,0.00,,,0.00,0,weatherlink.com 1.10,2013-01-04 05:41:00,
2013-01-03 21:56:00,46.0,36.0,30.26,SSE,150,0.0,3.0,68,0.00,,,0.00,0,weatherlink.com 1.10,2013-01-04 05:56:00,
2013-01-03 22:11:00,45.8,35.0,30.27,SSE,150,0.0,1.0,67,0.00,,,0.00,0,weatherlink.com 1.10,2013-01-04 06:11:00,
2013-01-03 22:26:00,45.8,35.0,30.27,SSE,150,0.0,1.0,66,0.00,,,0.00,0,weatherlink.com 1.10,2013-01-04 06:26:00,
2013-01-03 22:41:00,45.3,36.0,30.27,SSE,150,0.0,1.0,69,0.00,,,0.00,0,weatherlink.com 1.10,2013-01-04 06:41:00,
2013-01-03 22:56:00,44.7,35.0,30.27,SSE,150,0.0,0.0,69,0.00,,,0.00,0,weatherlink.com 1.10,2013-01-04 06:56:00,
2013-01-03 23:11:00,44.6,35.0,30.27,SSE,150,0.0,1.0,69,0.00,,,0.00,0,weatherlink.com 1.10,2013-01-04 07:11:00,
2013-01-03 23:26:00,45.7,34.0,30.26,SW,223,0.0,3.0,65,0.00,,,0.00,0,weatherlink.com 1.10,2013-01-04 07:26:00,
2013-01-03 23:41:00,46.5,34.0,30.26,SSE,164,0.0,3.0,63,0.00,,,0.00,0,weatherlink.com 1.10,2013-01-04 07:41:00,
2013-01-03 23:56:00,45.8,35.0,30.26,SSE,164,0.0,0.0,65,0.00,,,0.00,0,weatherlink.com 1.10,2013-01-04 07:56:00,